Rock Springs, Wisconsin
Current Conditions -  °F | °C
As of 5:15 PM on Friday 31 Oct 2014 (Local Time) from KC35 Reporting Station
Clear Clear  
Wind Chill: 27°   Ceiling: Unl
Heat Index: 36°   Visibility: 10mi
Dew Point: 18°   Wind: 15mph
Humidity: 48%   Direction: 360°N
Pressure: 30.4"   Gusts: 21mph
Location:  43.49°N, 89.92°W
Report Text: KC35 312215Z AUTO 36013G18KT 10SM CLR 02/M08 A3040 RMK AO2 T00221077
Loading
Personal Weather Stations






























Interactive Weather Map
Tropical Storm Tracking
New forecast layout! Learn more

10-Day Weather Forecast

Advertisements
Track Severe Weather on mobile